Terminal Aerodrome Forecast
Issued by NWS Jackson, MS

Home | Current Version | Previous Version | Text Only | Print | Product List | Glossary On
Versions: 1 2 3 4 5 6 7 8 9 10 11 12 13 14
448
FTUS44 KJAN 270522
TAFHBG
TAF
KHBG 270522Z 2706/2806 17004KT P6SM SCT015
     FM270900 00000KT P6SM BKN008 BKN012
     FM271300 21006KT P6SM BKN015 BKN025
     FM271700 19011KT P6SM SCT030 BKN050=

USA.gov is the U.S. government's official web portal to all federal, state and local government web resources and services.